sensor_id;sensor_type;location;lat;lon;timestamp;P1;durP1;ratioP1;P2;durP2;ratioP2
45065;SDS011;30830;53.704;10.004;2024-01-06T00:01:00;6.13;;;3.70;;
45065;SDS011;30830;53.704;10.004;2024-01-06T00:03:26;4.88;;;3.72;;
45065;SDS011;30830;53.704;10.004;2024-01-06T00:05:51;5.30;;;4.35;;
45065;SDS011;30830;53.704;10.004;2024-01-06T00:08:17;5.53;;;3.50;;
45065;SDS011;30830;53.704;10.004;2024-01-06T00:10:42;5.82;;;4.28;;
45065;SDS011;30830;53.704;10.004;2024-01-06T00:13:08;5.22;;;3.83;;
45065;SDS011;30830;53.704;10.004;2024-01-06T00:15:34;4.70;;;3.35;;
45065;SDS011;30830;53.704;10.004;2024-01-06T00:18:00;5.22;;;3.85;;
45065;SDS011;30830;53.704;10.004;2024-01-06T00:20:25;5.40;;;3.75;;
45065;SDS011;30830;53.704;10.004;2024-01-06T00:22:51;6.70;;;4.22;;
45065;SDS011;30830;53.704;10.004;2024-01-06T00:25:16;7.00;;;4.07;;
45065;SDS011;30830;53.704;10.004;2024-01-06T00:27:42;5.70;;;4.22;;
45065;SDS011;30830;53.704;10.004;2024-01-06T00:30:07;8.30;;;4.35;;
45065;SDS011;30830;53.704;10.004;2024-01-06T00:32:33;6.15;;;4.05;;
45065;SDS011;30830;53.704;10.004;2024-01-06T00:34:59;7.03;;;4.28;;
45065;SDS011;30830;53.704;10.004;2024-01-06T00:37:24;4.55;;;3.53;;
45065;SDS011;30830;53.704;10.004;2024-01-06T00:39:50;5.22;;;3.63;;
45065;SDS011;30830;53.704;10.004;2024-01-06T00:42:15;5.18;;;4.47;;
45065;SDS011;30830;53.704;10.004;2024-01-06T00:44:41;5.10;;;3.50;;
45065;SDS011;30830;53.704;10.004;2024-01-06T00:47:07;4.78;;;3.95;;
45065;SDS011;30830;53.704;10.004;2024-01-06T00:49:32;6.03;;;4.68;;
45065;SDS011;30830;53.704;10.004;2024-01-06T00:51:58;5.40;;;4.05;;
45065;SDS011;30830;53.704;10.004;2024-01-06T00:54:23;6.63;;;4.15;;
45065;SDS011;30830;53.704;10.004;2024-01-06T00:56:49;6.05;;;4.30;;
45065;SDS011;30830;53.704;10.004;2024-01-06T00:59:14;6.38;;;4.30;;
45065;SDS011;30830;53.704;10.004;2024-01-06T01:01:40;4.90;;;3.72;;
45065;SDS011;30830;53.704;10.004;2024-01-06T01:04:05;8.48;;;4.28;;
45065;SDS011;30830;53.704;10.004;2024-01-06T01:06:31;5.05;;;3.92;;
45065;SDS011;30830;53.704;10.004;2024-01-06T01:08:56;5.80;;;4.20;;
45065;SDS011;30830;53.704;10.004;2024-01-06T01:11:22;5.18;;;4.25;;
45065;SDS011;30830;53.704;10.004;2024-01-06T01:13:47;3.92;;;3.30;;
45065;SDS011;30830;53.704;10.004;2024-01-06T01:16:13;4.95;;;3.60;;
45065;SDS011;30830;53.704;10.004;2024-01-06T01:18:39;6.35;;;3.92;;
45065;SDS011;30830;53.704;10.004;2024-01-06T01:21:04;4.82;;;4.15;;
45065;SDS011;30830;53.704;10.004;2024-01-06T01:23:30;5.13;;;3.90;;
45065;SDS011;30830;53.704;10.004;2024-01-06T01:25:55;6.03;;;4.28;;
45065;SDS011;30830;53.704;10.004;2024-01-06T01:28:21;5.38;;;4.18;;
45065;SDS011;30830;53.704;10.004;2024-01-06T01:30:47;6.45;;;3.97;;
45065;SDS011;30830;53.704;10.004;2024-01-06T01:33:12;6.28;;;4.72;;
45065;SDS011;30830;53.704;10.004;2024-01-06T01:35:38;7.03;;;4.30;;
45065;SDS011;30830;53.704;10.004;2024-01-06T01:38:03;5.75;;;4.30;;
45065;SDS011;30830;53.704;10.004;2024-01-06T01:40:29;5.35;;;4.32;;
45065;SDS011;30830;53.704;10.004;2024-01-06T01:42:54;7.45;;;4.85;;
45065;SDS011;30830;53.704;10.004;2024-01-06T01:45:20;7.97;;;4.07;;
45065;SDS011;30830;53.704;10.004;2024-01-06T01:47:45;7.30;;;4.75;;
45065;SDS011;30830;53.704;10.004;2024-01-06T01:50:11;6.95;;;4.68;;
45065;SDS011;30830;53.704;10.004;2024-01-06T01:52:39;7.03;;;5.15;;
45065;SDS011;30830;53.704;10.004;2024-01-06T01:55:06;6.30;;;4.63;;
45065;SDS011;30830;53.704;10.004;2024-01-06T01:57:32;6.72;;;5.28;;
45065;SDS011;30830;53.704;10.004;2024-01-06T01:59:57;7.22;;;4.70;;
45065;SDS011;30830;53.704;10.004;2024-01-06T02:02:25;7.53;;;5.38;;
45065;SDS011;30830;53.704;10.004;2024-01-06T02:04:53;6.43;;;4.90;;
45065;SDS011;30830;53.704;10.004;2024-01-06T02:07:19;7.78;;;4.72;;
45065;SDS011;30830;53.704;10.004;2024-01-06T02:09:45;6.20;;;4.90;;
45065;SDS011;30830;53.704;10.004;2024-01-06T02:12:11;6.38;;;4.68;;
45065;SDS011;30830;53.704;10.004;2024-01-06T02:14:36;8.57;;;5.55;;
45065;SDS011;30830;53.704;10.004;2024-01-06T02:17:02;8.05;;;4.65;;
45065;SDS011;30830;53.704;10.004;2024-01-06T02:19:28;7.72;;;5.40;;
45065;SDS011;30830;53.704;10.004;2024-01-06T02:21:53;7.28;;;5.55;;
45065;SDS011;30830;53.704;10.004;2024-01-06T02:24:19;5.95;;;4.95;;
45065;SDS011;30830;53.704;10.004;2024-01-06T02:26:45;9.07;;;6.43;;
45065;SDS011;30830;53.704;10.004;2024-01-06T02:29:10;8.30;;;6.10;;
45065;SDS011;30830;53.704;10.004;2024-01-06T02:31:36;8.00;;;6.50;;
45065;SDS011;30830;53.704;10.004;2024-01-06T02:34:01;8.93;;;5.97;;
45065;SDS011;30830;53.704;10.004;2024-01-06T02:36:27;11.35;;;6.30;;
45065;SDS011;30830;53.704;10.004;2024-01-06T02:38:52;7.70;;;6.00;;
45065;SDS011;30830;53.704;10.004;2024-01-06T02:41:18;8.48;;;6.63;;
45065;SDS011;30830;53.704;10.004;2024-01-06T02:43:44;8.38;;;6.22;;
45065;SDS011;30830;53.704;10.004;2024-01-06T02:46:09;9.65;;;5.93;;
45065;SDS011;30830;53.704;10.004;2024-01-06T02:48:35;8.43;;;5.97;;
45065;SDS011;30830;53.704;10.004;2024-01-06T02:51:00;8.73;;;6.07;;
45065;SDS011;30830;53.704;10.004;2024-01-06T02:53:26;9.30;;;6.45;;
45065;SDS011;30830;53.704;10.004;2024-01-06T02:55:51;11.73;;;6.78;;
45065;SDS011;30830;53.704;10.004;2024-01-06T02:58:17;7.80;;;6.05;;
45065;SDS011;30830;53.704;10.004;2024-01-06T03:00:42;9.90;;;6.78;;
45065;SDS011;30830;53.704;10.004;2024-01-06T03:03:08;7.82;;;6.63;;
45065;SDS011;30830;53.704;10.004;2024-01-06T03:05:33;10.60;;;5.95;;
45065;SDS011;30830;53.704;10.004;2024-01-06T03:07:59;7.85;;;5.82;;
45065;SDS011;30830;53.704;10.004;2024-01-06T03:10:25;8.73;;;6.28;;
45065;SDS011;30830;53.704;10.004;2024-01-06T03:12:51;8.90;;;6.28;;
45065;SDS011;30830;53.704;10.004;2024-01-06T03:15:17;8.88;;;6.07;;
45065;SDS011;30830;53.704;10.004;2024-01-06T03:17:42;9.85;;;6.90;;
45065;SDS011;30830;53.704;10.004;2024-01-06T03:20:08;7.80;;;6.00;;
45065;SDS011;30830;53.704;10.004;2024-01-06T03:22:34;6.95;;;5.75;;
45065;SDS011;30830;53.704;10.004;2024-01-06T03:24:59;8.10;;;5.88;;
45065;SDS011;30830;53.704;10.004;2024-01-06T03:27:25;8.13;;;5.88;;
45065;SDS011;30830;53.704;10.004;2024-01-06T03:29:51;8.50;;;6.03;;
45065;SDS011;30830;53.704;10.004;2024-01-06T03:32:16;8.88;;;6.05;;
45065;SDS011;30830;53.704;10.004;2024-01-06T03:34:42;11.90;;;6.32;;
45065;SDS011;30830;53.704;10.004;2024-01-06T03:37:07;10.23;;;6.55;;
45065;SDS011;30830;53.704;10.004;2024-01-06T03:39:33;8.65;;;5.90;;
45065;SDS011;30830;53.704;10.004;2024-01-06T03:41:59;8.30;;;5.90;;
45065;SDS011;30830;53.704;10.004;2024-01-06T03:44:25;11.13;;;6.28;;
45065;SDS011;30830;53.704;10.004;2024-01-06T03:46:55;9.65;;;6.05;;
45065;SDS011;30830;53.704;10.004;2024-01-06T03:49:22;10.13;;;5.95;;
45065;SDS011;30830;53.704;10.004;2024-01-06T03:51:47;9.75;;;6.13;;
45065;SDS011;30830;53.704;10.004;2024-01-06T03:54:13;12.13;;;6.80;;
45065;SDS011;30830;53.704;10.004;2024-01-06T03:56:38;8.90;;;6.20;;
45065;SDS011;30830;53.704;10.004;2024-01-06T03:59:04;8.70;;;5.72;;
45065;SDS011;30830;53.704;10.004;2024-01-06T04:01:29;12.02;;;6.32;;
45065;SDS011;30830;53.704;10.004;2024-01-06T04:03:59;8.38;;;6.10;;
45065;SDS011;30830;53.704;10.004;2024-01-06T04:06:25;10.98;;;6.55;;
45065;SDS011;30830;53.704;10.004;2024-01-06T04:08:51;7.32;;;5.50;;
45065;SDS011;30830;53.704;10.004;2024-01-06T04:11:19;10.35;;;5.93;;
45065;SDS011;30830;53.704;10.004;2024-01-06T04:13:45;8.55;;;5.75;;
45065;SDS011;30830;53.704;10.004;2024-01-06T04:16:11;8.20;;;5.93;;
45065;SDS011;30830;53.704;10.004;2024-01-06T04:18:36;11.65;;;7.10;;
45065;SDS011;30830;53.704;10.004;2024-01-06T04:21:02;9.63;;;5.75;;
45065;SDS011;30830;53.704;10.004;2024-01-06T04:23:28;9.55;;;6.63;;
45065;SDS011;30830;53.704;10.004;2024-01-06T04:25:53;9.10;;;5.82;;
45065;SDS011;30830;53.704;10.004;2024-01-06T04:28:19;8.90;;;6.00;;
45065;SDS011;30830;53.704;10.004;2024-01-06T04:30:45;10.35;;;6.53;;
45065;SDS011;30830;53.704;10.004;2024-01-06T04:33:10;10.35;;;6.32;;
45065;SDS011;30830;53.704;10.004;2024-01-06T04:35:36;9.50;;;6.50;;
45065;SDS011;30830;53.704;10.004;2024-01-06T04:38:02;9.00;;;5.80;;
45065;SDS011;30830;53.704;10.004;2024-01-06T04:40:27;9.13;;;5.75;;
45065;SDS011;30830;53.704;10.004;2024-01-06T04:42:53;10.45;;;7.07;;
45065;SDS011;30830;53.704;10.004;2024-01-06T04:45:18;8.98;;;5.78;;
45065;SDS011;30830;53.704;10.004;2024-01-06T04:47:44;9.70;;;6.72;;
45065;SDS011;30830;53.704;10.004;2024-01-06T04:50:10;10.65;;;6.32;;
45065;SDS011;30830;53.704;10.004;2024-01-06T04:52:35;8.90;;;6.07;;
45065;SDS011;30830;53.704;10.004;2024-01-06T04:55:01;8.15;;;5.07;;
45065;SDS011;30830;53.704;10.004;2024-01-06T04:57:27;9.25;;;6.32;;
45065;SDS011;30830;53.704;10.004;2024-01-06T04:59:53;8.48;;;5.88;;
45065;SDS011;30830;53.704;10.004;2024-01-06T05:02:18;8.00;;;6.43;;
45065;SDS011;30830;53.704;10.004;2024-01-06T05:04:44;7.53;;;6.03;;
45065;SDS011;30830;53.704;10.004;2024-01-06T05:07:09;8.68;;;6.63;;
45065;SDS011;30830;53.704;10.004;2024-01-06T05:09:35;8.85;;;6.22;;
45065;SDS011;30830;53.704;10.004;2024-01-06T05:12:01;11.35;;;6.75;;
45065;SDS011;30830;53.704;10.004;2024-01-06T05:14:26;11.02;;;6.93;;
45065;SDS011;30830;53.704;10.004;2024-01-06T05:16:52;9.10;;;6.20;;
45065;SDS011;30830;53.704;10.004;2024-01-06T05:19:17;9.02;;;5.97;;
45065;SDS011;30830;53.704;10.004;2024-01-06T05:21:46;8.65;;;6.18;;
45065;SDS011;30830;53.704;10.004;2024-01-06T05:24:12;9.45;;;6.57;;
45065;SDS011;30830;53.704;10.004;2024-01-06T05:26:37;13.00;;;7.22;;
45065;SDS011;30830;53.704;10.004;2024-01-06T05:29:03;10.40;;;7.20;;
45065;SDS011;30830;53.704;10.004;2024-01-06T05:31:29;8.25;;;5.75;;
45065;SDS011;30830;53.704;10.004;2024-01-06T05:33:54;12.27;;;8.02;;
45065;SDS011;30830;53.704;10.004;2024-01-06T05:36:20;12.13;;;7.55;;
45065;SDS011;30830;53.704;10.004;2024-01-06T05:38:45;9.38;;;7.18;;
45065;SDS011;30830;53.704;10.004;2024-01-06T05:41:11;10.35;;;7.07;;
45065;SDS011;30830;53.704;10.004;2024-01-06T05:43:36;9.48;;;6.85;;
45065;SDS011;30830;53.704;10.004;2024-01-06T05:46:02;10.38;;;7.03;;
45065;SDS011;30830;53.704;10.004;2024-01-06T05:48:27;9.70;;;7.15;;
45065;SDS011;30830;53.704;10.004;2024-01-06T05:50:53;13.20;;;6.93;;
45065;SDS011;30830;53.704;10.004;2024-01-06T05:53:19;9.10;;;7.40;;
45065;SDS011;30830;53.704;10.004;2024-01-06T05:55:45;8.80;;;6.82;;
45065;SDS011;30830;53.704;10.004;2024-01-06T05:58:10;9.63;;;6.50;;
45065;SDS011;30830;53.704;10.004;2024-01-06T06:00:36;9.23;;;6.93;;
45065;SDS011;30830;53.704;10.004;2024-01-06T06:03:02;11.75;;;7.30;;
45065;SDS011;30830;53.704;10.004;2024-01-06T06:05:28;12.63;;;7.90;;
45065;SDS011;30830;53.704;10.004;2024-01-06T06:07:53;10.73;;;7.35;;
45065;SDS011;30830;53.704;10.004;2024-01-06T06:10:19;11.43;;;7.43;;
45065;SDS011;30830;53.704;10.004;2024-01-06T06:12:45;9.30;;;6.82;;
45065;SDS011;30830;53.704;10.004;2024-01-06T06:15:11;9.95;;;7.35;;
45065;SDS011;30830;53.704;10.004;2024-01-06T06:17:36;11.70;;;7.70;;
45065;SDS011;30830;53.704;10.004;2024-01-06T06:20:02;9.90;;;7.60;;
45065;SDS011;30830;53.704;10.004;2024-01-06T06:22:28;8.98;;;6.60;;
45065;SDS011;30830;53.704;10.004;2024-01-06T06:24:57;12.98;;;7.80;;
45065;SDS011;30830;53.704;10.004;2024-01-06T06:27:23;12.02;;;7.78;;
45065;SDS011;30830;53.704;10.004;2024-01-06T06:29:49;9.45;;;6.97;;
45065;SDS011;30830;53.704;10.004;2024-01-06T06:32:15;14.32;;;8.25;;
45065;SDS011;30830;53.704;10.004;2024-01-06T06:34:40;11.20;;;7.72;;
45065;SDS011;30830;53.704;10.004;2024-01-06T06:37:06;13.25;;;8.40;;
45065;SDS011;30830;53.704;10.004;2024-01-06T06:39:33;12.80;;;7.30;;
45065;SDS011;30830;53.704;10.004;2024-01-06T06:42:00;9.50;;;6.28;;
45065;SDS011;30830;53.704;10.004;2024-01-06T06:44:26;12.48;;;7.63;;
45065;SDS011;30830;53.704;10.004;2024-01-06T06:46:52;12.35;;;8.35;;
45065;SDS011;30830;53.704;10.004;2024-01-06T06:49:17;15.10;;;8.27;;
45065;SDS011;30830;53.704;10.004;2024-01-06T06:51:43;12.30;;;8.20;;
45065;SDS011;30830;53.704;10.004;2024-01-06T06:54:12;12.63;;;8.13;;
45065;SDS011;30830;53.704;10.004;2024-01-06T06:56:39;10.65;;;7.25;;
45065;SDS011;30830;53.704;10.004;2024-01-06T06:59:05;12.13;;;8.25;;
45065;SDS011;30830;53.704;10.004;2024-01-06T07:01:30;14.88;;;8.52;;
45065;SDS011;30830;53.704;10.004;2024-01-06T07:03:56;11.50;;;8.05;;
45065;SDS011;30830;53.704;10.004;2024-01-06T07:06:22;13.05;;;7.82;;
45065;SDS011;30830;53.704;10.004;2024-01-06T07:08:47;13.02;;;7.45;;
45065;SDS011;30830;53.704;10.004;2024-01-06T07:11:13;11.85;;;7.43;;
45065;SDS011;30830;53.704;10.004;2024-01-06T07:13:40;10.00;;;7.30;;
45065;SDS011;30830;53.704;10.004;2024-01-06T07:16:05;13.45;;;8.13;;
45065;SDS011;30830;53.704;10.004;2024-01-06T07:18:32;12.30;;;7.80;;
45065;SDS011;30830;53.704;10.004;2024-01-06T07:20:58;10.85;;;7.72;;
45065;SDS011;30830;53.704;10.004;2024-01-06T07:23:23;11.70;;;7.97;;
45065;SDS011;30830;53.704;10.004;2024-01-06T07:25:49;12.68;;;7.85;;
45065;SDS011;30830;53.704;10.004;2024-01-06T07:28:14;13.35;;;7.65;;
45065;SDS011;30830;53.704;10.004;2024-01-06T07:30:40;10.48;;;7.22;;
45065;SDS011;30830;53.704;10.004;2024-01-06T07:33:06;9.48;;;7.22;;
45065;SDS011;30830;53.704;10.004;2024-01-06T07:35:31;12.65;;;7.50;;
45065;SDS011;30830;53.704;10.004;2024-01-06T07:37:57;11.95;;;7.53;;
45065;SDS011;30830;53.704;10.004;2024-01-06T07:40:22;9.23;;;7.15;;
45065;SDS011;30830;53.704;10.004;2024-01-06T07:42:50;9.65;;;7.10;;
45065;SDS011;30830;53.704;10.004;2024-01-06T07:45:16;11.57;;;7.65;;
45065;SDS011;30830;53.704;10.004;2024-01-06T07:47:42;14.18;;;7.05;;
45065;SDS011;30830;53.704;10.004;2024-01-06T07:50:07;11.07;;;7.30;;
45065;SDS011;30830;53.704;10.004;2024-01-06T07:52:34;12.98;;;7.75;;
45065;SDS011;30830;53.704;10.004;2024-01-06T07:54:59;10.95;;;7.53;;
45065;SDS011;30830;53.704;10.004;2024-01-06T07:57:25;10.90;;;7.57;;
45065;SDS011;30830;53.704;10.004;2024-01-06T07:59:50;10.23;;;6.63;;
45065;SDS011;30830;53.704;10.004;2024-01-06T08:02:16;10.18;;;6.43;;
45065;SDS011;30830;53.704;10.004;2024-01-06T08:04:42;9.73;;;7.20;;
45065;SDS011;30830;53.704;10.004;2024-01-06T08:07:07;10.50;;;6.90;;
45065;SDS011;30830;53.704;10.004;2024-01-06T08:09:33;10.20;;;7.60;;
45065;SDS011;30830;53.704;10.004;2024-01-06T08:11:59;9.88;;;6.45;;
45065;SDS011;30830;53.704;10.004;2024-01-06T08:14:24;11.75;;;7.45;;
45065;SDS011;30830;53.704;10.004;2024-01-06T08:16:50;11.32;;;6.30;;
45065;SDS011;30830;53.704;10.004;2024-01-06T08:19:15;9.95;;;6.22;;
45065;SDS011;30830;53.704;10.004;2024-01-06T08:21:41;12.75;;;7.32;;
45065;SDS011;30830;53.704;10.004;2024-01-06T08:24:07;14.38;;;7.57;;
45065;SDS011;30830;53.704;10.004;2024-01-06T08:26:32;11.18;;;7.20;;
45065;SDS011;30830;53.704;10.004;2024-01-06T08:28:58;9.68;;;6.45;;
45065;SDS011;30830;53.704;10.004;2024-01-06T08:31:24;11.45;;;7.05;;
45065;SDS011;30830;53.704;10.004;2024-01-06T08:33:49;9.10;;;6.50;;
45065;SDS011;30830;53.704;10.004;2024-01-06T08:36:15;11.07;;;6.90;;
45065;SDS011;30830;53.704;10.004;2024-01-06T08:38:41;12.90;;;7.85;;
45065;SDS011;30830;53.704;10.004;2024-01-06T08:41:06;10.90;;;6.72;;
45065;SDS011;30830;53.704;10.004;2024-01-06T08:43:32;12.93;;;7.28;;
45065;SDS011;30830;53.704;10.004;2024-01-06T08:45:58;13.07;;;7.65;;
45065;SDS011;30830;53.704;10.004;2024-01-06T08:48:24;11.07;;;7.50;;
45065;SDS011;30830;53.704;10.004;2024-01-06T08:50:50;11.88;;;6.75;;
45065;SDS011;30830;53.704;10.004;2024-01-06T08:53:16;13.82;;;7.10;;
45065;SDS011;30830;53.704;10.004;2024-01-06T08:55:41;12.30;;;6.53;;
45065;SDS011;30830;53.704;10.004;2024-01-06T08:58:07;10.38;;;6.20;;
45065;SDS011;30830;53.704;10.004;2024-01-06T09:00:32;9.57;;;6.55;;
45065;SDS011;30830;53.704;10.004;2024-01-06T09:02:58;11.43;;;7.07;;
45065;SDS011;30830;53.704;10.004;2024-01-06T09:05:24;9.30;;;6.38;;
45065;SDS011;30830;53.704;10.004;2024-01-06T09:07:50;8.57;;;6.47;;
45065;SDS011;30830;53.704;10.004;2024-01-06T09:10:16;9.23;;;6.65;;
45065;SDS011;30830;53.704;10.004;2024-01-06T09:12:42;10.70;;;6.90;;
45065;SDS011;30830;53.704;10.004;2024-01-06T09:15:08;10.35;;;6.72;;
45065;SDS011;30830;53.704;10.004;2024-01-06T09:17:34;10.20;;;6.40;;
45065;SDS011;30830;53.704;10.004;2024-01-06T09:20:00;10.40;;;6.97;;
45065;SDS011;30830;53.704;10.004;2024-01-06T09:22:26;10.80;;;6.03;;
45065;SDS011;30830;53.704;10.004;2024-01-06T09:24:51;12.38;;;6.60;;
45065;SDS011;30830;53.704;10.004;2024-01-06T09:27:17;11.68;;;6.32;;
45065;SDS011;30830;53.704;10.004;2024-01-06T09:29:43;10.90;;;6.65;;
45065;SDS011;30830;53.704;10.004;2024-01-06T09:32:09;9.52;;;6.72;;
45065;SDS011;30830;53.704;10.004;2024-01-06T09:34:34;12.30;;;7.93;;
45065;SDS011;30830;53.704;10.004;2024-01-06T09:37:00;8.68;;;6.65;;
45065;SDS011;30830;53.704;10.004;2024-01-06T09:39:25;10.10;;;7.18;;
45065;SDS011;30830;53.704;10.004;2024-01-06T09:41:51;10.90;;;6.95;;
45065;SDS011;30830;53.704;10.004;2024-01-06T09:44:16;10.77;;;6.93;;
45065;SDS011;30830;53.704;10.004;2024-01-06T09:46:43;12.80;;;7.45;;
45065;SDS011;30830;53.704;10.004;2024-01-06T09:49:09;10.77;;;7.15;;
45065;SDS011;30830;53.704;10.004;2024-01-06T09:51:36;12.90;;;7.00;;
45065;SDS011;30830;53.704;10.004;2024-01-06T09:54:04;8.50;;;6.47;;
45065;SDS011;30830;53.704;10.004;2024-01-06T09:56:34;10.93;;;6.93;;
45065;SDS011;30830;53.704;10.004;2024-01-06T09:59:00;12.07;;;7.38;;
45065;SDS011;30830;53.704;10.004;2024-01-06T10:01:26;10.60;;;7.05;;
45065;SDS011;30830;53.704;10.004;2024-01-06T10:03:52;9.07;;;6.25;;
45065;SDS011;30830;53.704;10.004;2024-01-06T10:06:18;11.38;;;6.82;;
45065;SDS011;30830;53.704;10.004;2024-01-06T10:08:48;12.30;;;7.35;;
45065;SDS011;30830;53.704;10.004;2024-01-06T10:11:15;14.25;;;7.15;;
45065;SDS011;30830;53.704;10.004;2024-01-06T10:13:41;10.05;;;7.25;;
45065;SDS011;30830;53.704;10.004;2024-01-06T10:16:07;9.15;;;7.15;;
45065;SDS011;30830;53.704;10.004;2024-01-06T10:18:32;7.88;;;6.00;;
45065;SDS011;30830;53.704;10.004;2024-01-06T10:21:00;9.40;;;7.05;;
45065;SDS011;30830;53.704;10.004;2024-01-06T10:23:30;10.55;;;7.18;;
45065;SDS011;30830;53.704;10.004;2024-01-06T10:25:57;8.75;;;6.45;;
45065;SDS011;30830;53.704;10.004;2024-01-06T10:28:22;11.65;;;6.25;;
45065;SDS011;30830;53.704;10.004;2024-01-06T10:30:49;8.18;;;4.82;;
45065;SDS011;30830;53.704;10.004;2024-01-06T10:33:17;12.82;;;6.82;;
45065;SDS011;30830;53.704;10.004;2024-01-06T10:35:44;9.05;;;6.43;;
45065;SDS011;30830;53.704;10.004;2024-01-06T10:38:10;10.40;;;6.68;;
45065;SDS011;30830;53.704;10.004;2024-01-06T10:40:36;10.10;;;6.70;;
45065;SDS011;30830;53.704;10.004;2024-01-06T10:43:02;10.63;;;6.60;;
45065;SDS011;30830;53.704;10.004;2024-01-06T10:45:28;8.07;;;5.65;;
45065;SDS011;30830;53.704;10.004;2024-01-06T10:47:57;12.35;;;6.93;;
45065;SDS011;30830;53.704;10.004;2024-01-06T10:50:24;9.55;;;6.03;;
45065;SDS011;30830;53.704;10.004;2024-01-06T10:52:53;8.00;;;5.20;;
45065;SDS011;30830;53.704;10.004;2024-01-06T10:55:21;6.95;;;5.18;;
45065;SDS011;30830;53.704;10.004;2024-01-06T10:57:47;11.93;;;6.45;;
45065;SDS011;30830;53.704;10.004;2024-01-06T11:00:16;8.43;;;5.35;;
45065;SDS011;30830;53.704;10.004;2024-01-06T11:02:41;6.97;;;5.43;;
45065;SDS011;30830;53.704;10.004;2024-01-06T11:05:08;7.32;;;5.15;;
45065;SDS011;30830;53.704;10.004;2024-01-06T11:07:35;9.32;;;5.88;;
45065;SDS011;30830;53.704;10.004;2024-01-06T11:10:04;8.73;;;4.90;;
45065;SDS011;30830;53.704;10.004;2024-01-06T11:12:41;9.70;;;5.72;;
45065;SDS011;30830;53.704;10.004;2024-01-06T11:15:07;8.00;;;4.75;;
45065;SDS011;30830;53.704;10.004;2024-01-06T11:17:52;7.63;;;5.60;;
45065;SDS011;30830;53.704;10.004;2024-01-06T11:20:22;7.93;;;4.32;;
45065;SDS011;30830;53.704;10.004;2024-01-06T11:22:48;6.85;;;4.13;;
45065;SDS011;30830;53.704;10.004;2024-01-06T11:25:15;7.85;;;4.93;;
45065;SDS011;30830;53.704;10.004;2024-01-06T11:27:44;8.18;;;4.75;;
45065;SDS011;30830;53.704;10.004;2024-01-06T11:30:31;7.30;;;4.75;;
45065;SDS011;30830;53.704;10.004;2024-01-06T11:32:58;6.72;;;4.18;;
45065;SDS011;30830;53.704;10.004;2024-01-06T11:35:26;6.13;;;3.97;;
45065;SDS011;30830;53.704;10.004;2024-01-06T11:37:53;6.47;;;4.03;;
45065;SDS011;30830;53.704;10.004;2024-01-06T11:40:29;9.05;;;4.60;;
45065;SDS011;30830;53.704;10.004;2024-01-06T11:42:58;6.60;;;4.25;;
45065;SDS011;30830;53.704;10.004;2024-01-06T11:45:34;7.95;;;4.47;;
45065;SDS011;30830;53.704;10.004;2024-01-06T11:48:02;4.45;;;3.45;;
45065;SDS011;30830;53.704;10.004;2024-01-06T11:50:30;5.50;;;3.10;;
45065;SDS011;30830;53.704;10.004;2024-01-06T11:52:59;5.50;;;3.78;;
45065;SDS011;30830;53.704;10.004;2024-01-06T11:55:25;5.45;;;3.70;;
45065;SDS011;30830;53.704;10.004;2024-01-06T11:57:57;4.38;;;3.38;;
45065;SDS011;30830;53.704;10.004;2024-01-06T12:00:26;5.75;;;3.22;;
45065;SDS011;30830;53.704;10.004;2024-01-06T12:02:56;4.90;;;3.38;;
45065;SDS011;30830;53.704;10.004;2024-01-06T12:05:22;5.88;;;3.60;;
45065;SDS011;30830;53.704;10.004;2024-01-06T12:08:07;5.68;;;3.47;;
45065;SDS011;30830;53.704;10.004;2024-01-06T12:10:33;2.72;;;2.38;;
45065;SDS011;30830;53.704;10.004;2024-01-06T12:13:00;5.28;;;3.00;;
45065;SDS011;30830;53.704;10.004;2024-01-06T12:15:30;3.97;;;2.95;;
45065;SDS011;30830;53.704;10.004;2024-01-06T12:17:57;5.63;;;3.45;;
45065;SDS011;30830;53.704;10.004;2024-01-06T12:20:23;5.97;;;3.13;;
45065;SDS011;30830;53.704;10.004;2024-01-06T12:22:54;4.57;;;3.30;;
45065;SDS011;30830;53.704;10.004;2024-01-06T12:25:23;5.13;;;3.58;;
45065;SDS011;30830;53.704;10.004;2024-01-06T12:27:50;5.85;;;3.20;;
45065;SDS011;30830;53.704;10.004;2024-01-06T12:30:18;6.60;;;3.42;;
45065;SDS011;30830;53.704;10.004;2024-01-06T12:32:46;6.07;;;3.75;;
45065;SDS011;30830;53.704;10.004;2024-01-06T12:35:13;6.65;;;3.75;;
45065;SDS011;30830;53.704;10.004;2024-01-06T12:37:41;4.75;;;3.38;;
45065;SDS011;30830;53.704;10.004;2024-01-06T12:40:11;4.35;;;3.60;;
45065;SDS011;30830;53.704;10.004;2024-01-06T12:42:38;7.43;;;3.75;;
45065;SDS011;30830;53.704;10.004;2024-01-06T12:45:04;4.90;;;2.97;;
45065;SDS011;30830;53.704;10.004;2024-01-06T12:47:31;6.07;;;3.78;;
45065;SDS011;30830;53.704;10.004;2024-01-06T12:49:57;6.00;;;3.58;;
45065;SDS011;30830;53.704;10.004;2024-01-06T12:52:23;5.15;;;3.47;;
45065;SDS011;30830;53.704;10.004;2024-01-06T12:54:49;5.05;;;3.65;;
45065;SDS011;30830;53.704;10.004;2024-01-06T12:57:14;6.03;;;2.83;;
45065;SDS011;30830;53.704;10.004;2024-01-06T12:59:41;4.53;;;3.08;;
45065;SDS011;30830;53.704;10.004;2024-01-06T13:02:06;4.18;;;2.90;;
45065;SDS011;30830;53.704;10.004;2024-01-06T13:04:32;5.15;;;3.03;;
45065;SDS011;30830;53.704;10.004;2024-01-06T13:06:57;6.30;;;3.20;;
45065;SDS011;30830;53.704;10.004;2024-01-06T13:09:23;3.63;;;2.85;;
45065;SDS011;30830;53.704;10.004;2024-01-06T13:11:49;5.60;;;3.20;;
45065;SDS011;30830;53.704;10.004;2024-01-06T13:14:20;4.78;;;3.13;;
45065;SDS011;30830;53.704;10.004;2024-01-06T13:16:46;5.30;;;3.50;;
45065;SDS011;30830;53.704;10.004;2024-01-06T13:19:11;5.80;;;3.60;;
45065;SDS011;30830;53.704;10.004;2024-01-06T13:21:37;5.50;;;3.53;;
45065;SDS011;30830;53.704;10.004;2024-01-06T13:24:04;4.95;;;3.13;;
45065;SDS011;30830;53.704;10.004;2024-01-06T13:26:31;7.15;;;3.80;;
45065;SDS011;30830;53.704;10.004;2024-01-06T13:28:57;5.28;;;3.28;;
45065;SDS011;30830;53.704;10.004;2024-01-06T13:31:22;5.15;;;3.70;;
45065;SDS011;30830;53.704;10.004;2024-01-06T13:33:48;6.88;;;3.67;;
45065;SDS011;30830;53.704;10.004;2024-01-06T13:36:16;5.45;;;3.38;;
45065;SDS011;30830;53.704;10.004;2024-01-06T13:38:42;5.68;;;3.50;;
45065;SDS011;30830;53.704;10.004;2024-01-06T13:41:08;4.57;;;3.60;;
45065;SDS011;30830;53.704;10.004;2024-01-06T13:43:34;4.50;;;3.40;;
45065;SDS011;30830;53.704;10.004;2024-01-06T13:46:00;4.65;;;3.67;;
45065;SDS011;30830;53.704;10.004;2024-01-06T13:48:26;5.22;;;3.30;;
45065;SDS011;30830;53.704;10.004;2024-01-06T13:50:52;4.25;;;3.30;;
45065;SDS011;30830;53.704;10.004;2024-01-06T13:53:17;6.90;;;3.88;;
45065;SDS011;30830;53.704;10.004;2024-01-06T13:55:43;4.88;;;3.80;;
45065;SDS011;30830;53.704;10.004;2024-01-06T13:58:09;5.10;;;3.25;;
45065;SDS011;30830;53.704;10.004;2024-01-06T14:00:35;5.82;;;3.70;;
45065;SDS011;30830;53.704;10.004;2024-01-06T14:03:01;4.15;;;3.00;;
45065;SDS011;30830;53.704;10.004;2024-01-06T14:05:28;8.50;;;4.18;;
45065;SDS011;30830;53.704;10.004;2024-01-06T14:07:53;5.90;;;4.28;;
45065;SDS011;30830;53.704;10.004;2024-01-06T14:10:19;5.30;;;3.97;;
45065;SDS011;30830;53.704;10.004;2024-01-06T14:12:45;6.68;;;4.25;;
45065;SDS011;30830;53.704;10.004;2024-01-06T14:15:10;6.28;;;4.03;;
45065;SDS011;30830;53.704;10.004;2024-01-06T14:17:37;7.28;;;4.50;;
45065;SDS011;30830;53.704;10.004;2024-01-06T14:20:03;5.82;;;3.92;;
45065;SDS011;30830;53.704;10.004;2024-01-06T14:22:29;6.00;;;3.60;;
45065;SDS011;30830;53.704;10.004;2024-01-06T14:24:55;4.78;;;4.28;;